sensor_id;sensor_type;location;lat;lon;timestamp;pressure;altitude;pressure_sealevel;temperature;humidity
51999;BME280;73339;50.924;11.598;2023-11-19T00:01:52;99176.36;;;19.61;34.66
51999;BME280;73339;50.924;11.598;2023-11-19T00:04:22;99179.29;;;19.67;34.62
51999;BME280;73339;50.924;11.598;2023-11-19T00:06:53;99183.22;;;20.09;33.79
51999;BME280;73339;50.924;11.598;2023-11-19T00:09:23;99180.15;;;19.60;34.70
51999;BME280;73339;50.924;11.598;2023-11-19T00:11:54;99179.05;;;19.36;35.16
51999;BME280;73339;50.924;11.598;2023-11-19T00:14:24;99181.34;;;19.64;34.51
51999;BME280;73339;50.924;11.598;2023-11-19T00:16:55;99181.09;;;19.38;34.99
51999;BME280;73339;50.924;11.598;2023-11-19T00:19:25;99181.91;;;19.80;34.24
51999;BME280;73339;50.924;11.598;2023-11-19T00:21:56;99172.73;;;19.92;33.97
51999;BME280;73339;50.924;11.598;2023-11-19T00:24:26;99165.19;;;19.62;34.47
51999;BME280;73339;50.924;11.598;2023-11-19T00:26:57;99160.14;;;19.65;34.56
51999;BME280;73339;50.924;11.598;2023-11-19T00:29:27;99150.59;;;19.63;34.39
51999;BME280;73339;50.924;11.598;2023-11-19T00:31:58;99149.51;;;19.60;34.54
51999;BME280;73339;50.924;11.598;2023-11-19T00:34:28;99159.41;;;19.87;34.04
51999;BME280;73339;50.924;11.598;2023-11-19T00:36:58;99150.98;;;19.70;34.33
51999;BME280;73339;50.924;11.598;2023-11-19T00:39:29;99137.66;;;19.60;34.51
51999;BME280;73339;50.924;11.598;2023-11-19T00:41:59;99129.26;;;19.53;34.60
51999;BME280;73339;50.924;11.598;2023-11-19T00:44:30;99131.20;;;19.57;34.62
51999;BME280;73339;50.924;11.598;2023-11-19T00:47:00;99115.97;;;19.19;35.19
51999;BME280;73339;50.924;11.598;2023-11-19T00:49:31;99113.25;;;19.40;34.80
51999;BME280;73339;50.924;11.598;2023-11-19T00:52:01;99101.57;;;19.61;34.52
51999;BME280;73339;50.924;11.598;2023-11-19T00:54:32;99095.01;;;19.54;34.53
51999;BME280;73339;50.924;11.598;2023-11-19T00:57:03;99084.87;;;19.42;34.82
51999;BME280;73339;50.924;11.598;2023-11-19T00:59:33;99064.75;;;19.39;34.79
51999;BME280;73339;50.924;11.598;2023-11-19T01:02:03;99063.49;;;19.38;34.75
51999;BME280;73339;50.924;11.598;2023-11-19T01:04:34;99051.33;;;19.20;35.21
51999;BME280;73339;50.924;11.598;2023-11-19T01:07:05;99041.34;;;19.24;35.01
51999;BME280;73339;50.924;11.598;2023-11-19T01:09:35;99044.39;;;19.49;34.60
51999;BME280;73339;50.924;11.598;2023-11-19T01:12:06;99048.48;;;19.58;34.36
51999;BME280;73339;50.924;11.598;2023-11-19T01:14:36;99046.77;;;19.26;35.01
51999;BME280;73339;50.924;11.598;2023-11-19T01:17:06;99058.89;;;19.31;34.96
51999;BME280;73339;50.924;11.598;2023-11-19T01:19:37;99058.40;;;19.52;34.55
51999;BME280;73339;50.924;11.598;2023-11-19T01:22:07;99051.04;;;19.55;34.41
51999;BME280;73339;50.924;11.598;2023-11-19T01:24:37;99042.48;;;19.61;34.40
51999;BME280;73339;50.924;11.598;2023-11-19T01:27:08;99023.70;;;19.18;35.13
51999;BME280;73339;50.924;11.598;2023-11-19T01:29:38;99035.01;;;19.10;35.28
51999;BME280;73339;50.924;11.598;2023-11-19T01:32:09;99040.01;;;19.33;34.88
51999;BME280;73339;50.924;11.598;2023-11-19T01:34:40;99033.90;;;19.23;35.05
51999;BME280;73339;50.924;11.598;2023-11-19T01:37:10;99036.35;;;19.34;34.76
51999;BME280;73339;50.924;11.598;2023-11-19T01:39:43;99031.61;;;19.20;35.11
51999;BME280;73339;50.924;11.598;2023-11-19T01:42:11;99030.62;;;19.25;35.02
51999;BME280;73339;50.924;11.598;2023-11-19T01:44:41;99033.08;;;19.17;35.16
51999;BME280;73339;50.924;11.598;2023-11-19T01:47:12;99022.14;;;19.34;34.86
51999;BME280;73339;50.924;11.598;2023-11-19T01:49:42;99026.85;;;19.63;34.29
51999;BME280;73339;50.924;11.598;2023-11-19T01:52:13;99022.74;;;19.80;34.05
51999;BME280;73339;50.924;11.598;2023-11-19T01:54:43;99019.41;;;19.49;34.57
51999;BME280;73339;50.924;11.598;2023-11-19T01:57:14;99006.14;;;19.66;34.22
51999;BME280;73339;50.924;11.598;2023-11-19T01:59:44;99004.09;;;19.73;34.22
51999;BME280;73339;50.924;11.598;2023-11-19T02:02:15;98993.64;;;19.22;35.10
51999;BME280;73339;50.924;11.598;2023-11-19T02:04:46;98987.97;;;19.42;34.75
51999;BME280;73339;50.924;11.598;2023-11-19T02:07:16;98986.63;;;19.68;34.30
51999;BME280;73339;50.924;11.598;2023-11-19T02:09:46;98971.39;;;19.53;34.56
51999;BME280;73339;50.924;11.598;2023-11-19T02:12:17;98954.83;;;19.58;34.42
51999;BME280;73339;50.924;11.598;2023-11-19T02:14:47;98958.15;;;19.78;34.12
51999;BME280;73339;50.924;11.598;2023-11-19T02:17:26;98957.39;;;19.62;34.40
51999;BME280;73339;50.924;11.598;2023-11-19T02:19:48;98950.10;;;19.30;35.01
51999;BME280;73339;50.924;11.598;2023-11-19T02:22:19;98936.85;;;19.58;34.52
51999;BME280;73339;50.924;11.598;2023-11-19T02:24:51;98927.15;;;19.01;35.58
51999;BME280;73339;50.924;11.598;2023-11-19T02:27:25;98905.89;;;19.68;34.36
51999;BME280;73339;50.924;11.598;2023-11-19T02:29:50;98907.86;;;19.55;34.62
51999;BME280;73339;50.924;11.598;2023-11-19T02:32:20;98900.55;;;19.48;34.67
51999;BME280;73339;50.924;11.598;2023-11-19T02:34:51;98889.00;;;19.48;34.71
51999;BME280;73339;50.924;11.598;2023-11-19T02:37:21;98891.84;;;19.45;34.81
51999;BME280;73339;50.924;11.598;2023-11-19T02:39:52;98892.56;;;19.34;35.12
51999;BME280;73339;50.924;11.598;2023-11-19T02:42:22;98883.08;;;19.50;34.67
51999;BME280;73339;50.924;11.598;2023-11-19T02:44:53;98880.92;;;19.43;34.86
51999;BME280;73339;50.924;11.598;2023-11-19T02:47:23;98878.09;;;19.51;34.69
51999;BME280;73339;50.924;11.598;2023-11-19T02:49:54;98875.71;;;19.03;35.65
51999;BME280;73339;50.924;11.598;2023-11-19T02:52:24;98867.90;;;19.50;34.70
51999;BME280;73339;50.924;11.598;2023-11-19T02:54:55;98870.53;;;19.57;34.62
51999;BME280;73339;50.924;11.598;2023-11-19T02:57:25;98870.63;;;19.68;34.43
51999;BME280;73339;50.924;11.598;2023-11-19T02:59:56;98872.74;;;19.77;34.20
51999;BME280;73339;50.924;11.598;2023-11-19T03:02:26;98863.36;;;19.52;34.74
51999;BME280;73339;50.924;11.598;2023-11-19T03:04:57;98869.04;;;19.52;34.69
51999;BME280;73339;50.924;11.598;2023-11-19T03:07:27;98873.72;;;19.58;34.66
51999;BME280;73339;50.924;11.598;2023-11-19T03:09:57;98868.64;;;19.97;33.83
51999;BME280;73339;50.924;11.598;2023-11-19T03:12:28;98864.55;;;19.83;34.09
51999;BME280;73339;50.924;11.598;2023-11-19T03:14:58;98870.32;;;19.75;34.30
51999;BME280;73339;50.924;11.598;2023-11-19T03:17:29;98876.50;;;19.33;35.13
51999;BME280;73339;50.924;11.598;2023-11-19T03:20:00;98870.43;;;19.53;34.74
51999;BME280;73339;50.924;11.598;2023-11-19T03:22:30;98869.54;;;19.43;34.91
51999;BME280;73339;50.924;11.598;2023-11-19T03:25:00;98872.54;;;19.38;35.01
51999;BME280;73339;50.924;11.598;2023-11-19T03:27:31;98864.91;;;19.76;34.34
51999;BME280;73339;50.924;11.598;2023-11-19T03:30:02;98858.39;;;19.51;34.69
51999;BME280;73339;50.924;11.598;2023-11-19T03:32:32;98855.88;;;19.66;34.47
51999;BME280;73339;50.924;11.598;2023-11-19T03:35:03;98851.25;;;19.83;34.18
51999;BME280;73339;50.924;11.598;2023-11-19T03:37:33;98854.69;;;19.29;35.21
51999;BME280;73339;50.924;11.598;2023-11-19T03:40:04;98859.89;;;19.52;34.86
51999;BME280;73339;50.924;11.598;2023-11-19T03:42:34;98854.74;;;19.31;35.26
51999;BME280;73339;50.924;11.598;2023-11-19T03:45:05;98855.66;;;19.81;34.26
51999;BME280;73339;50.924;11.598;2023-11-19T03:47:35;98854.96;;;19.98;33.95
51999;BME280;73339;50.924;11.598;2023-11-19T03:50:06;98858.47;;;19.59;34.70
51999;BME280;73339;50.924;11.598;2023-11-19T03:52:36;98857.60;;;19.98;33.96
51999;BME280;73339;50.924;11.598;2023-11-19T03:55:07;98842.90;;;19.41;35.09
51999;BME280;73339;50.924;11.598;2023-11-19T03:57:37;98835.59;;;19.76;34.41
51999;BME280;73339;50.924;11.598;2023-11-19T04:00:08;98830.78;;;19.93;34.09
51999;BME280;73339;50.924;11.598;2023-11-19T04:02:37;98835.74;;;19.87;34.24
51999;BME280;73339;50.924;11.598;2023-11-19T04:05:08;98835.35;;;19.73;34.48
51999;BME280;73339;50.924;11.598;2023-11-19T04:07:38;98833.92;;;20.01;34.00
51999;BME280;73339;50.924;11.598;2023-11-19T04:10:09;98841.08;;;20.06;33.92
51999;BME280;73339;50.924;11.598;2023-11-19T04:12:40;98828.71;;;20.03;33.94
51999;BME280;73339;50.924;11.598;2023-11-19T04:15:11;98830.20;;;20.09;33.87
51999;BME280;73339;50.924;11.598;2023-11-19T04:17:40;98824.88;;;19.74;34.58
51999;BME280;73339;50.924;11.598;2023-11-19T04:20:11;98822.56;;;20.05;33.97
51999;BME280;73339;50.924;11.598;2023-11-19T04:22:41;98814.37;;;19.52;35.03
51999;BME280;73339;50.924;11.598;2023-11-19T04:25:12;98808.31;;;19.80;34.53
51999;BME280;73339;50.924;11.598;2023-11-19T04:27:42;98812.81;;;19.91;34.33
51999;BME280;73339;50.924;11.598;2023-11-19T04:30:13;98808.71;;;19.51;35.15
51999;BME280;73339;50.924;11.598;2023-11-19T04:32:43;98799.66;;;19.77;34.70
51999;BME280;73339;50.924;11.598;2023-11-19T04:35:14;98803.55;;;20.08;34.11
51999;BME280;73339;50.924;11.598;2023-11-19T04:37:44;98795.04;;;19.73;34.76
51999;BME280;73339;50.924;11.598;2023-11-19T04:40:15;98793.88;;;19.88;34.50
51999;BME280;73339;50.924;11.598;2023-11-19T04:42:45;98786.67;;;19.49;35.32
51999;BME280;73339;50.924;11.598;2023-11-19T04:45:15;98781.94;;;19.64;35.07
51999;BME280;73339;50.924;11.598;2023-11-19T04:47:46;98794.38;;;19.93;34.51
51999;BME280;73339;50.924;11.598;2023-11-19T04:50:16;98793.87;;;20.04;34.28
51999;BME280;73339;50.924;11.598;2023-11-19T04:52:47;98797.49;;;20.26;33.86
51999;BME280;73339;50.924;11.598;2023-11-19T04:55:18;98782.32;;;19.92;34.51
51999;BME280;73339;50.924;11.598;2023-11-19T04:57:48;98769.96;;;20.09;34.28
51999;BME280;73339;50.924;11.598;2023-11-19T05:00:18;98772.16;;;19.79;34.79
51999;BME280;73339;50.924;11.598;2023-11-19T05:02:49;98777.66;;;19.92;34.57
51999;BME280;73339;50.924;11.598;2023-11-19T05:05:19;98765.47;;;20.00;34.48
51999;BME280;73339;50.924;11.598;2023-11-19T05:07:50;98765.90;;;19.82;34.86
51999;BME280;73339;50.924;11.598;2023-11-19T05:10:20;98773.75;;;19.85;34.85
51999;BME280;73339;50.924;11.598;2023-11-19T05:12:51;98772.38;;;20.23;34.04
51999;BME280;73339;50.924;11.598;2023-11-19T05:15:22;98787.64;;;20.25;34.05
51999;BME280;73339;50.924;11.598;2023-11-19T05:17:52;98789.08;;;20.29;33.99
51999;BME280;73339;50.924;11.598;2023-11-19T05:20:22;98780.67;;;19.64;35.26
51999;BME280;73339;50.924;11.598;2023-11-19T05:22:53;98779.67;;;20.10;34.39
51999;BME280;73339;50.924;11.598;2023-11-19T05:25:23;98766.49;;;19.94;34.74
51999;BME280;73339;50.924;11.598;2023-11-19T05:27:54;98780.26;;;20.19;34.21
51999;BME280;73339;50.924;11.598;2023-11-19T05:30:24;98761.76;;;19.90;34.77
51999;BME280;73339;50.924;11.598;2023-11-19T05:32:55;98754.85;;;19.94;34.77
51999;BME280;73339;50.924;11.598;2023-11-19T05:35:25;98747.88;;;19.92;34.81
51999;BME280;73339;50.924;11.598;2023-11-19T05:37:56;98732.23;;;19.53;35.67
51999;BME280;73339;50.924;11.598;2023-11-19T05:40:26;98731.35;;;19.57;35.56
51999;BME280;73339;50.924;11.598;2023-11-19T05:42:56;98726.01;;;19.73;35.24
51999;BME280;73339;50.924;11.598;2023-11-19T05:45:27;98751.74;;;20.13;34.51
51999;BME280;73339;50.924;11.598;2023-11-19T05:47:57;98750.38;;;19.90;35.00
51999;BME280;73339;50.924;11.598;2023-11-19T05:50:28;98771.04;;;19.74;35.34
51999;BME280;73339;50.924;11.598;2023-11-19T05:52:58;98772.36;;;19.41;36.04
51999;BME280;73339;50.924;11.598;2023-11-19T05:55:29;98788.48;;;20.12;34.66
51999;BME280;73339;50.924;11.598;2023-11-19T05:57:59;98784.84;;;19.87;35.19
51999;BME280;73339;50.924;11.598;2023-11-19T06:00:30;98787.47;;;19.96;34.99
51999;BME280;73339;50.924;11.598;2023-11-19T06:03:00;98780.36;;;19.48;36.03
51999;BME280;73339;50.924;11.598;2023-11-19T06:05:31;98796.44;;;19.85;35.34
51999;BME280;73339;50.924;11.598;2023-11-19T06:08:02;98779.26;;;19.69;35.63
51999;BME280;73339;50.924;11.598;2023-11-19T06:10:32;98780.56;;;19.62;35.81
51999;BME280;73339;50.924;11.598;2023-11-19T06:13:02;98777.58;;;19.96;35.12
51999;BME280;73339;50.924;11.598;2023-11-19T06:15:33;98773.15;;;20.19;34.63
51999;BME280;73339;50.924;11.598;2023-11-19T06:18:03;98767.08;;;20.05;34.95
51999;BME280;73339;50.924;11.598;2023-11-19T06:20:34;98762.14;;;20.17;34.71
51999;BME280;73339;50.924;11.598;2023-11-19T06:23:04;98757.24;;;19.81;35.47
51999;BME280;73339;50.924;11.598;2023-11-19T06:25:35;98761.57;;;20.13;34.83
51999;BME280;73339;50.924;11.598;2023-11-19T06:28:05;98747.88;;;19.89;35.37
51999;BME280;73339;50.924;11.598;2023-11-19T06:30:35;98757.47;;;20.09;34.99
51999;BME280;73339;50.924;11.598;2023-11-19T06:33:06;98746.22;;;19.99;35.21
51999;BME280;73339;50.924;11.598;2023-11-19T06:35:36;98759.53;;;20.12;34.94
51999;BME280;73339;50.924;11.598;2023-11-19T06:38:07;98747.73;;;19.53;36.19
51999;BME280;73339;50.924;11.598;2023-11-19T06:40:37;98748.98;;;19.84;35.63
51999;BME280;73339;50.924;11.598;2023-11-19T06:43:08;98753.00;;;19.80;35.76
51999;BME280;73339;50.924;11.598;2023-11-19T06:45:38;98749.70;;;19.39;36.60
51999;BME280;73339;50.924;11.598;2023-11-19T06:48:09;98743.63;;;19.84;35.69
51999;BME280;73339;50.924;11.598;2023-11-19T06:50:39;98751.61;;;19.64;36.19
51999;BME280;73339;50.924;11.598;2023-11-19T06:53:10;98746.98;;;19.77;35.84
51999;BME280;73339;50.924;11.598;2023-11-19T06:55:40;98745.09;;;19.91;35.60
51999;BME280;73339;50.924;11.598;2023-11-19T06:58:11;98754.38;;;19.89;35.69
51999;BME280;73339;50.924;11.598;2023-11-19T07:00:41;98757.56;;;20.05;35.34
51999;BME280;73339;50.924;11.598;2023-11-19T07:03:12;98765.41;;;20.31;34.81
51999;BME280;73339;50.924;11.598;2023-11-19T07:05:42;98747.66;;;19.89;35.68
51999;BME280;73339;50.924;11.598;2023-11-19T07:08:13;98752.99;;;19.97;35.53
51999;BME280;73339;50.924;11.598;2023-11-19T07:10:43;98760.21;;;20.27;34.95
51999;BME280;73339;50.924;11.598;2023-11-19T07:13:14;98766.00;;;20.05;35.43
51999;BME280;73339;50.924;11.598;2023-11-19T07:15:44;98750.74;;;19.38;36.84
51999;BME280;73339;50.924;11.598;2023-11-19T07:18:14;98752.35;;;19.67;36.26
51999;BME280;73339;50.924;11.598;2023-11-19T07:20:45;98744.02;;;19.99;35.67
51999;BME280;73339;50.924;11.598;2023-11-19T07:23:16;98746.14;;;19.90;35.81
51999;BME280;73339;50.924;11.598;2023-11-19T07:25:46;98758.96;;;19.63;36.42
51999;BME280;73339;50.924;11.598;2023-11-19T07:28:16;98759.12;;;20.08;35.56
51999;BME280;73339;50.924;11.598;2023-11-19T07:30:47;98769.56;;;19.95;35.82
51999;BME280;73339;50.924;11.598;2023-11-19T07:33:17;98774.48;;;20.09;35.57
51999;BME280;73339;50.924;11.598;2023-11-19T07:35:48;98767.29;;;20.33;35.06
51999;BME280;73339;50.924;11.598;2023-11-19T07:38:18;98766.72;;;19.89;35.94
51999;BME280;73339;50.924;11.598;2023-11-19T07:40:49;98759.33;;;19.59;36.60
51999;BME280;73339;50.924;11.598;2023-11-19T07:43:19;98756.25;;;20.34;35.12
51999;BME280;73339;50.924;11.598;2023-11-19T07:45:50;98773.32;;;20.24;35.23
51999;BME280;73339;50.924;11.598;2023-11-19T07:48:20;98765.79;;;20.11;35.58
51999;BME280;73339;50.924;11.598;2023-11-19T07:50:51;98763.42;;;20.25;35.27
51999;BME280;73339;50.924;11.598;2023-11-19T07:53:21;98752.36;;;20.05;35.67
51999;BME280;73339;50.924;11.598;2023-11-19T07:55:52;98767.81;;;20.11;35.63
51999;BME280;73339;50.924;11.598;2023-11-19T07:58:22;98773.52;;;20.30;35.18
51999;BME280;73339;50.924;11.598;2023-11-19T08:00:52;98771.47;;;20.05;35.70
51999;BME280;73339;50.924;11.598;2023-11-19T08:03:23;98785.03;;;20.18;35.37
51999;BME280;73339;50.924;11.598;2023-11-19T08:05:55;98786.85;;;20.00;35.82
51999;BME280;73339;50.924;11.598;2023-11-19T08:08:24;98786.23;;;20.38;35.07
51999;BME280;73339;50.924;11.598;2023-11-19T08:10:55;98786.98;;;20.25;35.30
51999;BME280;73339;50.924;11.598;2023-11-19T08:13:25;98780.46;;;20.03;35.78
51999;BME280;73339;50.924;11.598;2023-11-19T08:15:55;98783.39;;;20.28;35.26
51999;BME280;73339;50.924;11.598;2023-11-19T08:18:26;98780.47;;;20.33;35.19
51999;BME280;73339;50.924;11.598;2023-11-19T08:20:56;98775.39;;;20.08;35.66
51999;BME280;73339;50.924;11.598;2023-11-19T08:23:27;98763.70;;;20.58;34.73
51999;BME280;73339;50.924;11.598;2023-11-19T08:25:57;98760.62;;;20.23;35.39
51999;BME280;73339;50.924;11.598;2023-11-19T08:28:28;98775.27;;;20.52;34.84
51999;BME280;73339;50.924;11.598;2023-11-19T08:30:58;98771.32;;;20.35;35.19
51999;BME280;73339;50.924;11.598;2023-11-19T08:33:29;98770.83;;;20.57;34.78
51999;BME280;73339;50.924;11.598;2023-11-19T08:35:59;98770.03;;;20.41;35.08
51999;BME280;73339;50.924;11.598;2023-11-19T08:38:30;98772.09;;;20.49;34.94
51999;BME280;73339;50.924;11.598;2023-11-19T08:41:00;98765.73;;;20.64;34.67
51999;BME280;73339;50.924;11.598;2023-11-19T08:43:31;98768.34;;;20.29;35.38
51999;BME280;73339;50.924;11.598;2023-11-19T08:46:01;98768.23;;;20.20;35.61
51999;BME280;73339;50.924;11.598;2023-11-19T08:48:31;98764.48;;;20.36;35.29
51999;BME280;73339;50.924;11.598;2023-11-19T08:51:02;98764.22;;;20.57;34.86
51999;BME280;73339;50.924;11.598;2023-11-19T08:53:32;98759.17;;;20.29;35.48
51999;BME280;73339;50.924;11.598;2023-11-19T08:56:04;98760.31;;;20.46;35.16
51999;BME280;73339;50.924;11.598;2023-11-19T08:58:33;98761.46;;;20.44;35.17
51999;BME280;73339;50.924;11.598;2023-11-19T09:01:04;98760.01;;;20.06;35.98
51999;BME280;73339;50.924;11.598;2023-11-19T09:03:34;98761.75;;;20.61;34.92
51999;BME280;73339;50.924;11.598;2023-11-19T09:06:05;98767.03;;;20.50;35.11
51999;BME280;73339;50.924;11.598;2023-11-19T09:08:35;98767.81;;;20.30;35.53
51999;BME280;73339;50.924;11.598;2023-11-19T09:11:07;98761.46;;;20.58;35.00
51999;BME280;73339;50.924;11.598;2023-11-19T09:13:36;98763.20;;;20.63;34.93
51999;BME280;73339;50.924;11.598;2023-11-19T09:16:07;98760.50;;;20.63;35.00
51999;BME280;73339;50.924;11.598;2023-11-19T09:18:37;98771.45;;;20.85;34.54
51999;BME280;73339;50.924;11.598;2023-11-19T09:21:08;98768.65;;;20.68;34.87
51999;BME280;73339;50.924;11.598;2023-11-19T09:23:38;98773.94;;;20.53;35.17
51999;BME280;73339;50.924;11.598;2023-11-19T09:26:09;98764.45;;;20.86;34.53
51999;BME280;73339;50.924;11.598;2023-11-19T09:28:39;98765.03;;;20.91;34.43
51999;BME280;73339;50.924;11.598;2023-11-19T09:31:14;98772.72;;;20.36;35.59
51999;BME280;73339;50.924;11.598;2023-11-19T09:33:40;98767.50;;;20.26;35.81
51999;BME280;73339;50.924;11.598;2023-11-19T09:36:12;98776.37;;;20.35;35.72
51999;BME280;73339;50.924;11.598;2023-11-19T09:38:41;98780.69;;;20.06;36.34
51999;BME280;73339;50.924;11.598;2023-11-19T09:41:11;98784.14;;;20.51;35.46
51999;BME280;73339;50.924;11.598;2023-11-19T09:43:42;98779.67;;;20.40;35.64
51999;BME280;73339;50.924;11.598;2023-11-19T09:46:13;98784.24;;;20.65;35.10
51999;BME280;73339;50.924;11.598;2023-11-19T09:48:44;98772.26;;;20.49;35.44
51999;BME280;73339;50.924;11.598;2023-11-19T09:51:14;98768.72;;;20.71;34.89
51999;BME280;73339;50.924;11.598;2023-11-19T09:53:44;98786.37;;;20.52;35.32
51999;BME280;73339;50.924;11.598;2023-11-19T09:56:14;98787.30;;;20.71;34.84
51999;BME280;73339;50.924;11.598;2023-11-19T09:58:44;98780.31;;;20.49;35.32
51999;BME280;73339;50.924;11.598;2023-11-19T10:01:15;98775.39;;;20.44;35.45
51999;BME280;73339;50.924;11.598;2023-11-19T10:03:47;98781.06;;;20.67;34.72
51999;BME280;73339;50.924;11.598;2023-11-19T10:06:16;98768.87;;;20.73;34.37
51999;BME280;73339;50.924;11.598;2023-11-19T10:08:47;98771.34;;;20.49;35.11
51999;BME280;73339;50.924;11.598;2023-11-19T10:11:17;98763.42;;;20.64;34.86
51999;BME280;73339;50.924;11.598;2023-11-19T10:13:47;98765.45;;;20.62;34.78
51999;BME280;73339;50.924;11.598;2023-11-19T10:16:18;98766.34;;;20.74;34.70
51999;BME280;73339;50.924;11.598;2023-11-19T10:18:49;98755.87;;;20.63;34.75
51999;BME280;73339;50.924;11.598;2023-11-19T10:21:19;98755.30;;;20.61;34.93
51999;BME280;73339;50.924;11.598;2023-11-19T10:23:50;98757.12;;;20.49;35.11
51999;BME280;73339;50.924;11.598;2023-11-19T10:26:20;98763.68;;;20.63;34.74
51999;BME280;73339;50.924;11.598;2023-11-19T10:28:50;98754.52;;;20.55;34.91
51999;BME280;73339;50.924;11.598;2023-11-19T10:31:21;98735.34;;;20.68;34.75
51999;BME280;73339;50.924;11.598;2023-11-19T10:33:51;98754.64;;;20.26;35.57
51999;BME280;73339;50.924;11.598;2023-11-19T10:36:21;98761.91;;;20.32;35.20
51999;BME280;73339;50.924;11.598;2023-11-19T10:38:53;98764.51;;;20.44;35.17
51999;BME280;73339;50.924;11.598;2023-11-19T10:41:27;98765.69;;;20.45;34.95
51999;BME280;73339;50.924;11.598;2023-11-19T10:43:53;98781.10;;;20.33;35.10
51999;BME280;73339;50.924;11.598;2023-11-19T10:48:54;98801.43;;;20.53;34.80
51999;BME280;73339;50.924;11.598;2023-11-19T10:51:24;98797.85;;;20.42;35.14
51999;BME280;73339;50.924;11.598;2023-11-19T10:54:00;98794.11;;;20.46;34.94
51999;BME280;73339;50.924;11.598;2023-11-19T10:56:30;98801.85;;;20.54;34.72
51999;BME280;73339;50.924;11.598;2023-11-19T10:58:56;98798.50;;;20.33;35.22
51999;BME280;73339;50.924;11.598;2023-11-19T11:01:29;98802.02;;;20.46;34.83
51999;BME280;73339;50.924;11.598;2023-11-19T11:03:58;98795.37;;;20.50;34.97
51999;BME280;73339;50.924;11.598;2023-11-19T11:06:27;98791.71;;;20.36;35.27
51999;BME280;73339;50.924;11.598;2023-11-19T11:08:58;98797.79;;;20.49;35.01
51999;BME280;73339;50.924;11.598;2023-11-19T11:11:28;98790.05;;;20.23;35.54
51999;BME280;73339;50.924;11.598;2023-11-19T11:14:00;98791.68;;;20.50;35.04
51999;BME280;73339;50.924;11.598;2023-11-19T11:16:29;98790.32;;;20.57;34.83
51999;BME280;73339;50.924;11.598;2023-11-19T11:18:59;98790.41;;;20.53;34.63
51999;BME280;73339;50.924;11.598;2023-11-19T11:21:30;98797.09;;;20.24;35.40
51999;BME280;73339;50.924;11.598;2023-11-19T11:24:10;98797.64;;;20.49;34.89
51999;BME280;73339;50.924;11.598;2023-11-19T11:26:43;98786.51;;;20.31;35.28
51999;BME280;73339;50.924;11.598;2023-11-19T11:29:04;98781.62;;;20.39;34.89
51999;BME280;73339;50.924;11.598;2023-11-19T11:31:39;98785.63;;;20.34;35.05
51999;BME280;73339;50.924;11.598;2023-11-19T11:34:15;98791.15;;;20.33;35.26
51999;BME280;73339;50.924;11.598;2023-11-19T11:36:37;98795.77;;;20.23;35.15
51999;BME280;73339;50.924;11.598;2023-11-19T11:39:03;98797.99;;;20.43;34.77
51999;BME280;73339;50.924;11.598;2023-11-19T11:41:34;98789.44;;;20.50;34.49
51999;BME280;73339;50.924;11.598;2023-11-19T11:44:04;98780.80;;;20.24;35.27
51999;BME280;73339;50.924;11.598;2023-11-19T11:49:06;98785.52;;;20.27;35.37
51999;BME280;73339;50.924;11.598;2023-11-19T11:54:07;98784.12;;;20.32;35.24
51999;BME280;73339;50.924;11.598;2023-11-19T11:56:37;98783.77;;;20.37;35.17
51999;BME280;73339;50.924;11.598;2023-11-19T11:59:07;98783.09;;;20.30;35.19
51999;BME280;73339;50.924;11.598;2023-11-19T12:01:37;98784.79;;;20.28;35.33
51999;BME280;73339;50.924;11.598;2023-11-19T12:04:09;98789.30;;;20.41;35.14
51999;BME280;73339;50.924;11.598;2023-11-19T12:06:38;98789.64;;;20.47;34.78
51999;BME280;73339;50.924;11.598;2023-11-19T12:09:09;98784.26;;;20.34;35.25
51999;BME280;73339;50.924;11.598;2023-11-19T12:11:47;98790.79;;;20.53;34.72
51999;BME280;73339;50.924;11.598;2023-11-19T12:14:10;98795.53;;;20.44;34.94
51999;BME280;73339;50.924;11.598;2023-11-19T12:16:40;98798.79;;;20.38;35.08
51999;BME280;73339;50.924;11.598;2023-11-19T12:19:11;98794.44;;;20.49;34.82
51999;BME280;73339;50.924;11.598;2023-11-19T12:21:41;98793.63;;;20.39;35.07
51999;BME280;73339;50.924;11.598;2023-11-19T12:24:12;98796.26;;;20.09;35.66
51999;BME280;73339;50.924;11.598;2023-11-19T12:26:42;98795.30;;;20.11;35.74
51999;BME280;73339;50.924;11.598;2023-11-19T12:29:12;98793.93;;;20.18;35.58
51999;BME280;73339;50.924;11.598;2023-11-19T12:31:44;98785.04;;;20.25;35.34
51999;BME280;73339;50.924;11.598;2023-11-19T12:34:13;98784.77;;;20.08;35.57
51999;BME280;73339;50.924;11.598;2023-11-19T12:36:44;98785.32;;;19.93;36.04
51999;BME280;73339;50.924;11.598;2023-11-19T12:39:15;98785.21;;;19.86;36.29
51999;BME280;73339;50.924;11.598;2023-11-19T12:41:50;98776.58;;;19.98;35.87
51999;BME280;73339;50.924;11.598;2023-11-19T12:44:15;98775.75;;;19.92;36.12
51999;BME280;73339;50.924;11.598;2023-11-19T12:46:46;98780.63;;;19.95;35.94
51999;BME280;73339;50.924;11.598;2023-11-19T12:49:16;98780.02;;;19.89;36.15
51999;BME280;73339;50.924;11.598;2023-11-19T12:51:47;98777.68;;;19.89;36.19
51999;BME280;73339;50.924;11.598;2023-11-19T12:54:17;98771.31;;;20.00;35.85
51999;BME280;73339;50.924;11.598;2023-11-19T12:56:52;98768.12;;;19.90;36.17
51999;BME280;73339;50.924;11.598;2023-11-19T12:59:18;98774.35;;;20.06;35.79
51999;BME280;73339;50.924;11.598;2023-11-19T13:01:54;98782.90;;;19.68;36.55
51999;BME280;73339;50.924;11.598;2023-11-19T13:04:19;98787.37;;;19.72;36.49
51999;BME280;73339;50.924;11.598;2023-11-19T13:06:50;98794.30;;;19.92;36.12
51999;BME280;73339;50.924;11.598;2023-11-19T13:09:22;98804.42;;;19.85;36.19
51999;BME280;73339;50.924;11.598;2023-11-19T13:11:51;98799.66;;;19.79;36.35
51999;BME280;73339;50.924;11.598;2023-11-19T13:14:21;98796.33;;;19.76;36.51